createdAt,value
2022-10-26T00:01:34.534Z,99498.81
2022-10-26T00:04:04.056Z,99504.09
2022-10-26T00:06:32.087Z,99502.50
2022-10-26T00:09:00.115Z,99503.63
2022-10-26T00:11:28.167Z,99509.38
2022-10-26T00:13:56.267Z,99511.13
2022-10-26T00:16:26.390Z,99515.16
2022-10-26T00:18:54.838Z,99515.16
2022-10-26T00:21:24.253Z,99511.31
2022-10-26T00:23:52.282Z,99515.28
2022-10-26T00:26:20.355Z,99512.91
2022-10-26T00:28:48.913Z,99517.03
2022-10-26T00:31:17.612Z,99520.91
2022-10-26T00:33:46.111Z,99526.78
2022-10-26T00:36:16.942Z,99523.25
2022-10-26T00:38:50.182Z,99530.63
2022-10-26T00:41:19.889Z,99534.47
2022-10-26T00:43:48.204Z,99523.91
2022-10-26T00:46:21.010Z,99524.22
2022-10-26T00:48:53.420Z,99528.06
2022-10-26T00:51:26.967Z,99528.22
2022-10-26T00:53:57.707Z,99524.59
2022-10-26T00:56:26.062Z,99523.63
2022-10-26T00:58:54.508Z,99530.81
2022-10-26T01:01:22.566Z,99526.84
2022-10-26T01:03:51.079Z,99541.53
2022-10-26T01:06:20.307Z,99542.31
2022-10-26T01:08:49.347Z,99542.47
2022-10-26T01:11:19.464Z,99539.44
2022-10-26T01:13:49.603Z,99537.66
2022-10-26T01:16:42.044Z,99532.59
2022-10-26T01:19:45.720Z,99534.94
2022-10-26T01:22:18.679Z,99540.06
2022-10-26T01:25:06.567Z,99527.81
2022-10-26T01:27:37.941Z,99532.41
2022-10-26T01:30:19.791Z,99530.50
2022-10-26T01:32:56.492Z,99524.25
2022-10-26T01:35:31.335Z,99527.91
2022-10-26T01:38:06.629Z,99523.84
2022-10-26T01:40:39.370Z,99517.09
2022-10-26T01:43:10.974Z,99525.53
2022-10-26T01:45:43.482Z,99518.81
2022-10-26T01:48:15.236Z,99516.19
2022-10-26T01:50:45.243Z,99514.56
2022-10-26T01:53:13.833Z,99509.59
2022-10-26T01:55:46.879Z,99512.63
2022-10-26T01:58:43.451Z,99510.91
2022-10-26T02:01:25.781Z,99515.25
2022-10-26T02:04:05.273Z,99510.03
2022-10-26T02:06:42.443Z,99507.38
2022-10-26T02:09:21.672Z,99508.38
2022-10-26T02:11:53.462Z,99512.56
2022-10-26T02:14:26.040Z,99506.34
2022-10-26T02:16:58.425Z,99505.88
2022-10-26T02:19:35.051Z,99507.00
2022-10-26T02:22:09.944Z,99504.28
2022-10-26T02:24:38.664Z,99504.00
2022-10-26T02:27:13.094Z,99507.94
2022-10-26T02:29:42.975Z,99504.16
2022-10-26T02:32:14.014Z,99505.91
2022-10-26T02:34:47.133Z,99504.66
2022-10-26T02:37:20.328Z,99516.00
2022-10-26T02:39:50.892Z,99518.09
2022-10-26T02:42:20.359Z,99524.16
2022-10-26T02:44:52.645Z,99527.50
2022-10-26T02:47:22.831Z,99527.50
2022-10-26T02:49:51.309Z,99524.94
2022-10-26T02:52:25.649Z,99527.34
2022-10-26T02:54:59.106Z,99532.28
2022-10-26T02:57:33.460Z,99528.44
2022-10-26T03:00:02.700Z,99532.13
2022-10-26T03:02:32.167Z,99530.22
2022-10-26T03:05:10.887Z,99536.91
2022-10-26T03:07:38.870Z,99535.28
2022-10-26T03:10:08.193Z,99537.19
2022-10-26T03:12:36.217Z,99539.13
2022-10-26T03:15:04.352Z,99537.53
2022-10-26T03:17:33.700Z,99539.13
2022-10-26T03:20:01.640Z,99538.00
2022-10-26T03:22:29.658Z,99549.47
2022-10-26T03:24:57.663Z,99543.56
2022-10-26T03:27:27.071Z,99556.03
2022-10-26T03:29:55.095Z,99553.31
2022-10-26T03:32:23.149Z,99551.69
2022-10-26T03:34:52.506Z,99545.63
2022-10-26T03:37:20.622Z,99548.53
2022-10-26T03:39:48.539Z,99545.47
2022-10-26T03:42:16.594Z,99549.13
2022-10-26T03:44:44.509Z,99547.69
2022-10-26T03:47:12.402Z,99558.38
2022-10-26T03:49:40.407Z,99547.38
2022-10-26T03:52:09.818Z,99561.84
2022-10-26T03:54:37.787Z,99566.47
2022-10-26T03:57:05.836Z,99568.69
2022-10-26T03:59:33.758Z,99571.91
2022-10-26T04:02:01.829Z,99565.97
2022-10-26T04:04:29.994Z,99563.28
2022-10-26T04:06:58.149Z,99569.97
2022-10-26T04:09:27.546Z,99562.16
2022-10-26T04:11:55.506Z,99564.53
2022-10-26T04:14:23.510Z,99569.31
2022-10-26T04:16:51.561Z,99566.63
2022-10-26T04:19:19.499Z,99561.84
2022-10-26T04:21:47.550Z,99560.72
2022-10-26T04:24:16.307Z,99565.16
2022-10-26T04:26:46.385Z,99565.63
2022-10-26T04:29:14.500Z,99565.63
2022-10-26T04:34:13.000Z,99576.22
2022-10-26T04:36:41.119Z,99581.16
2022-10-26T04:39:09.318Z,99573.66
2022-10-26T04:41:37.335Z,99576.69
2022-10-26T04:44:06.833Z,99579.22
2022-10-26T04:46:34.913Z,99589.22
2022-10-26T04:49:03.022Z,99594.78
2022-10-26T04:51:30.996Z,99590.19
2022-10-26T04:53:59.001Z,99596.09
2022-10-26T04:56:27.050Z,99591.34
2022-10-26T04:58:55.738Z,99597.09
2022-10-26T05:01:25.246Z,99600.81
2022-10-26T05:03:54.817Z,99607.72
2022-10-26T05:06:22.968Z,99601.34
2022-10-26T05:08:51.038Z,99608.69
2022-10-26T05:11:18.977Z,99609.66
2022-10-26T05:13:49.165Z,99610.19
2022-10-26T05:16:17.513Z,99609.72
2022-10-26T05:18:49.576Z,99609.88
2022-10-26T05:21:19.800Z,99607.94
2022-10-26T05:23:52.570Z,99605.53
2022-10-26T05:26:20.719Z,99607.38
2022-10-26T05:28:48.881Z,99610.72
2022-10-26T05:31:16.950Z,99619.19
2022-10-26T05:33:49.482Z,99625.38
2022-10-26T05:36:17.876Z,99626.34
2022-10-26T05:38:46.016Z,99628.13
2022-10-26T05:41:14.590Z,99636.41
2022-10-26T05:43:42.604Z,99641.88
2022-10-26T05:46:10.613Z,99637.94
2022-10-26T05:48:38.618Z,99644.03
2022-10-26T05:51:08.277Z,99635.75
2022-10-26T05:53:36.238Z,99647.22
2022-10-26T05:56:07.291Z,99644.19
2022-10-26T05:58:39.455Z,99641.13
2022-10-26T06:01:20.012Z,99643.69
2022-10-26T06:04:02.411Z,99645.59
2022-10-26T06:06:39.615Z,99649.09
2022-10-26T06:09:09.657Z,99649.59
2022-10-26T06:11:38.207Z,99641.75
2022-10-26T06:14:07.297Z,99647.97
2022-10-26T06:16:43.356Z,99661.06
2022-10-26T06:19:22.926Z,99653.38
2022-10-26T06:22:05.673Z,99643.69
2022-10-26T06:24:41.682Z,99651.81
2022-10-26T06:27:20.079Z,99646.91
2022-10-26T06:29:57.242Z,99644.69
2022-10-26T06:32:26.028Z,99655.22
2022-10-26T06:35:07.226Z,99659.84
2022-10-26T06:37:37.755Z,99658.47
2022-10-26T06:40:07.685Z,99660.88
2022-10-26T06:42:36.228Z,99665.66
2022-10-26T06:45:05.108Z,99662.31
2022-10-26T06:47:41.498Z,99668.38
2022-10-26T06:50:20.697Z,99667.44
2022-10-26T06:52:58.940Z,99667.25
2022-10-26T06:55:27.461Z,99673.78
2022-10-26T06:57:55.944Z,99676.34
2022-10-26T07:00:25.878Z,99669.63
2022-10-26T07:02:54.379Z,99676.66
2022-10-26T07:05:22.909Z,99676.16
2022-10-26T07:07:52.526Z,99683.97
2022-10-26T07:10:20.814Z,99682.66
2022-10-26T07:12:49.836Z,99683.28
2022-10-26T07:15:18.125Z,99679.63
2022-10-26T07:17:47.107Z,99677.69
2022-10-26T07:20:16.106Z,99680.19
2022-10-26T07:22:44.575Z,99675.91
2022-10-26T07:25:14.136Z,99672.44
2022-10-26T07:27:42.200Z,99684.53
2022-10-26T07:30:11.475Z,99681.00
2022-10-26T07:32:39.674Z,99687.03
2022-10-26T07:35:08.262Z,99686.84
2022-10-26T07:37:36.357Z,99688.88
2022-10-26T07:40:06.637Z,99676.97
2022-10-26T07:42:37.498Z,99683.47
2022-10-26T07:45:06.800Z,99679.31
2022-10-26T07:47:34.825Z,99674.72
2022-10-26T07:50:03.476Z,99674.34
2022-10-26T07:52:31.572Z,99680.41
2022-10-26T07:54:59.613Z,99675.38
2022-10-26T07:57:27.656Z,99678.84
2022-10-26T07:59:57.456Z,99679.44
2022-10-26T08:02:25.867Z,99673.00
2022-10-26T08:04:53.995Z,99668.25
2022-10-26T08:07:22.089Z,99674.78
2022-10-26T08:09:50.193Z,99664.31
2022-10-26T08:12:18.259Z,99668.88
2022-10-26T08:14:46.659Z,99669.28
2022-10-26T08:17:16.090Z,99672.69
2022-10-26T08:19:44.065Z,99667.16
2022-10-26T08:22:12.112Z,99663.22
2022-10-26T08:24:40.922Z,99667.31
2022-10-26T08:27:08.935Z,99654.47
2022-10-26T08:29:36.945Z,99668.00
2022-10-26T08:32:05.214Z,99658.03
2022-10-26T08:34:34.736Z,99660.44
2022-10-26T08:37:02.851Z,99662.25
2022-10-26T08:39:31.103Z,99659.41
2022-10-26T08:42:06.806Z,99660.41
2022-10-26T08:44:40.566Z,99659.19
2022-10-26T08:49:57.858Z,99661.44
2022-10-26T08:52:31.424Z,99658.56
2022-10-26T08:55:03.217Z,99664.59
2022-10-26T08:57:41.406Z,99664.25
2022-10-26T09:00:15.164Z,99659.25
2022-10-26T09:02:43.230Z,99666.06
2022-10-26T09:05:17.513Z,99667.84
2022-10-26T09:07:56.002Z,99658.75
2022-10-26T09:10:41.110Z,99668.84
2022-10-26T09:13:19.562Z,99667.56
2022-10-26T09:15:58.863Z,99668.88
2022-10-26T09:18:38.070Z,99669.97
2022-10-26T09:21:26.849Z,99665.75
2022-10-26T09:24:03.351Z,99666.50
2022-10-26T09:26:34.734Z,99669.41
2022-10-26T09:29:06.099Z,99672.78
2022-10-26T09:31:43.304Z,99676.31
2022-10-26T09:34:21.803Z,99675.19
2022-10-26T09:36:55.294Z,99668.13
2022-10-26T09:39:30.178Z,99673.78
2022-10-26T09:42:01.638Z,99662.06
2022-10-26T09:44:35.641Z,99662.00
2022-10-26T09:47:10.723Z,99660.56
2022-10-26T09:49:48.786Z,99663.38
2022-10-26T09:52:18.536Z,99660.53
2022-10-26T09:54:46.567Z,99662.22
2022-10-26T09:57:17.188Z,99662.22
2022-10-26T09:59:47.928Z,99659.72
2022-10-26T10:02:37.266Z,99657.13
2022-10-26T10:05:39.142Z,99653.31
2022-10-26T10:08:17.877Z,99643.41
2022-10-26T10:10:57.032Z,99648.28
2022-10-26T10:13:27.767Z,99654.75
2022-10-26T10:16:03.403Z,99640.81
2022-10-26T10:18:32.237Z,99640.25
2022-10-26T10:21:01.493Z,99635.06
2022-10-26T10:23:33.964Z,99643.38
2022-10-26T10:26:04.454Z,99641.88
2022-10-26T10:28:33.287Z,99629.00
2022-10-26T10:31:03.201Z,99631.28
2022-10-26T10:33:39.888Z,99639.22
2022-10-26T10:36:12.230Z,99633.13
2022-10-26T10:38:46.795Z,99625.44
2022-10-26T10:41:21.206Z,99631.06
2022-10-26T10:43:51.047Z,99633.50
2022-10-26T10:46:21.993Z,99638.47
2022-10-26T10:48:53.197Z,99645.28
2022-10-26T10:51:23.447Z,99638.31
2022-10-26T10:53:55.606Z,99637.59
2022-10-26T10:56:41.633Z,99637.97
2022-10-26T10:59:47.954Z,99630.97
2022-10-26T11:02:51.442Z,99630.88
2022-10-26T11:05:45.455Z,99623.13
2022-10-26T11:08:19.295Z,99629.69
2022-10-26T11:10:53.639Z,99626.69
2022-10-26T11:13:24.910Z,99628.31
2022-10-26T11:16:01.195Z,99633.81
2022-10-26T11:18:33.894Z,99627.91
2022-10-26T11:21:08.477Z,99634.28
2022-10-26T11:23:43.854Z,99620.38
2022-10-26T11:26:17.119Z,99633.50
2022-10-26T11:28:51.097Z,99617.91
2022-10-26T11:31:24.518Z,99622.34
2022-10-26T11:34:07.537Z,99625.72
2022-10-26T11:36:38.040Z,99621.59
2022-10-26T11:39:16.102Z,99627.28
2022-10-26T11:41:50.937Z,99631.28
2022-10-26T11:44:23.521Z,99632.81
2022-10-26T11:46:56.680Z,99618.72
2022-10-26T11:49:30.934Z,99630.28
2022-10-26T11:52:05.347Z,99627.31
2022-10-26T11:54:37.207Z,99620.00
2022-10-26T11:57:07.079Z,99622.44
2022-10-26T11:59:40.507Z,99616.97
2022-10-26T12:02:16.468Z,99620.19
2022-10-26T12:04:47.437Z,99630.50
2022-10-26T12:07:25.634Z,99633.22
2022-10-26T12:09:55.210Z,99629.69
2022-10-26T12:12:36.396Z,99625.66
2022-10-26T12:15:19.408Z,99629.88
2022-10-26T12:17:54.244Z,99630.59
2022-10-26T12:20:53.453Z,99625.00
2022-10-26T12:23:33.924Z,99630.88
2022-10-26T12:26:48.318Z,99622.50
2022-10-26T12:29:45.974Z,99621.38
2022-10-26T12:32:50.872Z,99620.50
2022-10-26T12:35:37.922Z,99620.09
2022-10-26T12:38:33.621Z,99626.78
2022-10-26T12:41:20.876Z,99631.06
2022-10-26T12:43:48.982Z,99628.72
2022-10-26T12:46:46.164Z,99626.75
2022-10-26T12:49:43.769Z,99628.78
2022-10-26T12:52:43.720Z,99631.59
2022-10-26T12:55:50.470Z,99635.19
2022-10-26T12:58:47.963Z,99638.34
2022-10-26T13:01:32.237Z,99639.38
2022-10-26T13:04:15.641Z,99638.09
2022-10-26T13:06:58.459Z,99639.13
2022-10-26T13:09:33.126Z,99640.16
2022-10-26T13:12:02.537Z,99641.19
2022-10-26T13:14:36.015Z,99648.19
2022-10-26T13:17:07.142Z,99647.78
2022-10-26T13:19:46.254Z,99659.34
2022-10-26T13:22:17.305Z,99658.91
2022-10-26T13:24:51.768Z,99667.19
2022-10-26T13:27:40.662Z,99664.06
2022-10-26T13:30:39.037Z,99656.66
2022-10-26T13:33:11.772Z,99657.03
2022-10-26T13:35:44.547Z,99655.66
2022-10-26T13:38:14.466Z,99661.97
2022-10-26T13:40:43.063Z,99660.31
2022-10-26T13:43:21.321Z,99657.69
2022-10-26T13:45:55.503Z,99660.81
2022-10-26T13:48:34.837Z,99663.09
2022-10-26T13:51:12.279Z,99657.59
2022-10-26T13:53:44.527Z,99672.72
2022-10-26T13:56:21.199Z,99667.63
2022-10-26T13:58:52.249Z,99666.72
2022-10-26T14:01:26.118Z,99674.88
2022-10-26T14:03:54.229Z,99669.19
2022-10-26T14:06:28.891Z,99666.63
2022-10-26T14:08:58.151Z,99674.34
2022-10-26T14:11:33.716Z,99666.00
2022-10-26T14:14:04.130Z,99671.78
2022-10-26T14:16:35.502Z,99667.38
2022-10-26T14:19:04.476Z,99674.78
2022-10-26T14:21:33.892Z,99673.84
2022-10-26T14:24:07.623Z,99682.72
2022-10-26T14:26:41.612Z,99681.66
2022-10-26T14:29:17.739Z,99684.59
2022-10-26T14:31:46.109Z,99679.00
2022-10-26T14:34:14.558Z,99687.88
2022-10-26T14:36:47.618Z,99686.09
2022-10-26T14:39:24.222Z,99683.13
2022-10-26T14:41:55.334Z,99689.25
2022-10-26T14:44:25.856Z,99689.94
2022-10-26T14:46:54.526Z,99693.41
2022-10-26T14:49:25.074Z,99686.47
2022-10-26T14:51:59.554Z,99683.50
2022-10-26T14:54:30.057Z,99694.91
2022-10-26T14:56:58.418Z,99690.50
2022-10-26T14:59:28.658Z,99690.31
2022-10-26T15:01:58.248Z,99695.94
2022-10-26T15:04:34.885Z,99699.06
2022-10-26T15:07:10.428Z,99692.38
2022-10-26T15:09:44.310Z,99703.63
2022-10-26T15:12:30.624Z,99703.34
2022-10-26T15:15:09.635Z,99715.06
2022-10-26T15:17:39.955Z,99713.16
2022-10-26T15:20:15.499Z,99715.22
2022-10-26T15:22:50.621Z,99712.59
2022-10-26T15:25:22.959Z,99715.44
2022-10-26T15:27:52.369Z,99720.66
2022-10-26T15:30:24.078Z,99723.03
2022-10-26T15:32:55.491Z,99728.50
2022-10-26T15:35:29.631Z,99726.53
2022-10-26T15:38:01.233Z,99731.38
2022-10-26T15:40:30.906Z,99738.13
2022-10-26T15:43:01.770Z,99737.50
2022-10-26T15:45:33.246Z,99741.63
2022-10-26T15:48:17.678Z,99741.56
2022-10-26T15:50:45.677Z,99742.56
2022-10-26T15:53:20.704Z,99749.84
2022-10-26T15:55:49.229Z,99752.50
2022-10-26T15:58:17.510Z,99743.03
2022-10-26T16:00:45.694Z,99753.66
2022-10-26T16:03:16.678Z,99751.25
2022-10-26T16:05:44.787Z,99761.56
2022-10-26T16:08:18.043Z,99762.25
2022-10-26T16:10:47.654Z,99766.50
2022-10-26T16:13:16.338Z,99767.41
2022-10-26T16:15:44.886Z,99765.66
2022-10-26T16:18:13.175Z,99771.47
2022-10-26T16:20:41.670Z,99771.78
2022-10-26T16:23:09.800Z,99771.78
2022-10-26T16:25:44.645Z,99773.72
2022-10-26T16:28:13.229Z,99775.66
2022-10-26T16:33:14.347Z,99776.50
2022-10-26T16:35:42.363Z,99781.09
2022-10-26T16:38:10.413Z,99780.91
2022-10-26T16:40:38.413Z,99786.16
2022-10-26T16:43:07.768Z,99780.16
2022-10-26T16:45:35.824Z,99786.97
2022-10-26T16:48:07.040Z,99794.22
2022-10-26T16:50:36.433Z,99791.72
2022-10-26T16:53:04.723Z,99791.97
2022-10-26T16:55:33.161Z,99797.28
2022-10-26T16:58:01.442Z,99799.53
2022-10-26T17:00:33.452Z,99802.78
2022-10-26T17:03:02.891Z,99809.50
2022-10-26T17:05:31.679Z,99806.16
2022-10-26T17:07:59.647Z,99809.69
2022-10-26T17:10:28.052Z,99812.09
2022-10-26T17:12:57.606Z,99813.72
2022-10-26T17:15:28.945Z,99811.78
2022-10-26T17:17:58.604Z,99820.75
2022-10-26T17:20:26.675Z,99819.63
2022-10-26T17:22:54.722Z,99819.94
2022-10-26T17:25:22.696Z,99819.94
2022-10-26T17:27:50.787Z,99816.09
2022-10-26T17:30:18.956Z,99817.19
2022-10-26T17:32:46.972Z,99825.03
2022-10-26T17:35:17.001Z,99818.44
2022-10-26T17:37:45.031Z,99829.44
2022-10-26T17:40:13.682Z,99828.50
2022-10-26T17:42:41.661Z,99833.28
2022-10-26T17:45:10.984Z,99838.84
2022-10-26T17:47:39.072Z,99843.59
2022-10-26T17:50:08.095Z,99842.78
2022-10-26T17:52:37.545Z,99852.97
2022-10-26T17:55:06.265Z,99843.84
2022-10-26T17:57:34.516Z,99847.19
2022-10-26T18:00:02.507Z,99850.53
2022-10-26T18:02:30.753Z,99852.75
2022-10-26T18:05:00.035Z,99845.56
2022-10-26T18:07:31.311Z,99848.53
2022-10-26T18:10:13.850Z,99849.16
2022-10-26T18:12:48.982Z,99850.91
2022-10-26T18:15:17.486Z,99855.34
2022-10-26T18:17:45.436Z,99854.06
2022-10-26T18:20:13.527Z,99860.41
2022-10-26T18:22:41.497Z,99856.41
2022-10-26T18:25:11.263Z,99857.84
2022-10-26T18:27:39.251Z,99855.13
2022-10-26T18:30:08.558Z,99863.56
2022-10-26T18:32:36.563Z,99858.44
2022-10-26T18:35:04.823Z,99864.50
2022-10-26T18:37:32.764Z,99872.13
2022-10-26T18:40:00.774Z,99867.81
2022-10-26T18:42:30.158Z,99872.44
2022-10-26T18:45:01.307Z,99873.25
2022-10-26T18:47:30.377Z,99879.47
2022-10-26T18:49:58.697Z,99882.16
2022-10-26T18:52:28.019Z,99881.66
2022-10-26T18:54:56.519Z,99881.66
2022-10-26T18:57:26.995Z,99882.47
2022-10-26T18:59:56.515Z,99885.78
2022-10-26T19:02:24.421Z,99886.91
2022-10-26T19:04:53.759Z,99891.03
2022-10-26T19:07:21.822Z,99887.66
2022-10-26T19:09:49.764Z,99905.59
2022-10-26T19:12:17.711Z,99900.88
2022-10-26T19:14:45.690Z,99906.41
2022-10-26T19:17:15.112Z,99915.66
2022-10-26T19:19:43.256Z,99924.69
2022-10-26T19:22:11.510Z,99923.72
2022-10-26T19:24:39.538Z,99932.41
2022-10-26T19:27:07.654Z,99935.72
2022-10-26T19:29:35.777Z,99931.72
2022-10-26T19:32:03.834Z,99931.84
2022-10-26T19:34:33.156Z,99946.28
2022-10-26T19:37:01.143Z,99947.19
2022-10-26T19:39:29.079Z,99949.69
2022-10-26T19:41:57.167Z,99959.84
2022-10-26T19:44:25.685Z,99959.44
2022-10-26T19:46:54.039Z,99966.88
2022-10-26T19:49:22.114Z,99981.78
2022-10-26T19:51:51.544Z,99977.78
2022-10-26T19:54:19.513Z,99984.28
2022-10-26T19:56:47.594Z,99981.88
2022-10-26T19:59:15.873Z,99984.06
2022-10-26T20:01:43.967Z,99984.41
2022-10-26T20:04:12.024Z,99988.75
2022-10-26T20:06:40.169Z,99992.56
2022-10-26T20:09:09.671Z,99995.88
2022-10-26T20:11:39.756Z,100006.19
2022-10-26T20:14:08.416Z,99999.78
2022-10-26T20:16:36.358Z,100005.75
2022-10-26T20:19:04.635Z,100008.78
2022-10-26T20:21:32.784Z,100013.19
2022-10-26T20:24:00.859Z,100011.34
2022-10-26T20:26:30.215Z,100014.66
2022-10-26T20:28:58.483Z,100011.44
2022-10-26T20:31:26.516Z,100016.06
2022-10-26T20:33:54.799Z,100018.56
2022-10-26T20:36:23.683Z,100019.94
2022-10-26T20:38:52.282Z,100016.53
2022-10-26T20:41:20.966Z,100015.81
2022-10-26T20:43:53.303Z,100012.38
2022-10-26T20:46:25.500Z,100024.88
2022-10-26T20:48:54.954Z,100014.16
2022-10-26T20:51:34.488Z,100027.75
2022-10-26T20:54:08.346Z,100025.63
2022-10-26T20:56:40.132Z,100026.22
2022-10-26T20:59:17.195Z,100025.19
2022-10-26T21:01:45.291Z,100028.19
2022-10-26T21:04:13.350Z,100025.75
2022-10-26T21:06:41.332Z,100032.84
2022-10-26T21:09:10.161Z,100030.72
2022-10-26T21:11:38.124Z,100028.13
2022-10-26T21:14:06.489Z,100026.00
2022-10-26T21:16:35.889Z,100033.28
2022-10-26T21:19:05.116Z,100031.69
2022-10-26T21:21:33.203Z,100030.88
2022-10-26T21:24:01.166Z,100023.06
2022-10-26T21:26:29.119Z,100026.06
2022-10-26T21:28:57.127Z,100028.25
2022-10-26T21:31:25.133Z,100034.88
2022-10-26T21:33:54.485Z,100029.84
2022-10-26T21:36:23.063Z,100040.38
2022-10-26T21:38:51.038Z,100042.06
2022-10-26T21:41:20.550Z,100044.25
2022-10-26T21:43:59.096Z,100045.34
2022-10-26T21:46:38.209Z,100042.66
2022-10-26T21:49:07.805Z,100052.66
2022-10-26T21:51:36.175Z,100043.25
2022-10-26T21:54:04.443Z,100054.63
2022-10-26T21:56:32.397Z,100052.19
2022-10-26T21:59:01.507Z,100056.00
2022-10-26T22:01:29.701Z,100056.78
2022-10-26T22:03:57.949Z,100059.78
2022-10-26T22:06:27.450Z,100058.16
2022-10-26T22:08:55.551Z,100055.25
2022-10-26T22:11:25.522Z,100044.50
2022-10-26T22:13:54.073Z,100055.06
2022-10-26T22:16:24.472Z,100057.00
2022-10-26T22:18:54.363Z,100054.06
2022-10-26T22:21:26.617Z,100051.13
2022-10-26T22:23:56.427Z,100049.00
2022-10-26T22:26:25.908Z,100046.59
2022-10-26T22:28:55.579Z,100052.28
2022-10-26T22:31:25.917Z,100058.47
2022-10-26T22:33:54.673Z,100062.53
2022-10-26T22:36:23.519Z,100060.97
2022-10-26T22:38:52.212Z,100060.75
2022-10-26T22:41:23.445Z,100060.53
2022-10-26T22:43:51.905Z,100060.56
2022-10-26T22:46:21.692Z,100061.13
2022-10-26T22:48:54.771Z,100070.31
2022-10-26T22:51:24.438Z,100063.03
2022-10-26T22:53:53.938Z,100061.66
2022-10-26T22:58:58.027Z,100075.44
2022-10-26T23:01:27.969Z,100071.97
2022-10-26T23:03:56.730Z,100073.34
2022-10-26T23:06:26.699Z,100079.56
2022-10-26T23:08:54.713Z,100079.63
2022-10-26T23:11:26.759Z,100071.59
2022-10-26T23:13:55.458Z,100081.59
2022-10-26T23:16:23.623Z,100080.84
2022-10-26T23:18:53.284Z,100084.09
2022-10-26T23:21:23.087Z,100095.94
2022-10-26T23:23:51.210Z,100083.56
2022-10-26T23:26:21.947Z,100090.84
2022-10-26T23:28:51.642Z,100081.97
2022-10-26T23:31:21.358Z,100082.22
2022-10-26T23:33:52.162Z,100079.53
2022-10-26T23:36:20.753Z,100076.84
2022-10-26T23:38:49.258Z,100080.63
2022-10-26T23:41:17.631Z,100080.63
2022-10-26T23:43:45.731Z,100082.81
2022-10-26T23:46:15.273Z,100077.44
2022-10-26T23:48:43.325Z,100081.50
2022-10-26T23:51:11.252Z,100079.38
2022-10-26T23:53:39.294Z,100086.94
2022-10-26T23:56:07.996Z,100084.81
2022-10-26T23:58:36.034Z,100084.03
